Rockport, WA (98283)

8:52 AM PDT on October 31, 2014 (GMT -0700)
Newhalem Helistop | Change Station
CLOSE
Current Station
Personal Weather Station
Location: Newhalem, WA
Elevation: 504 ft
Nearby Weather Stations

Elev 504 ft 48.67 °N, 121.25 °W | Updated 29 seconds ago

Overcast
Overcast
50.2 °F
Feels Like 50.2 °F
N
0.0
Wind Variable Wind from NW
Gusts 0.0 mph

Today
High -- | Low -- °F
--% Chance of Precip.
Yesterday
High -- | Low -- °F
Precip. -- in
7:50 AM 5:47 PM
First Quarter, 56% visible
Pressure 29.72 in
Visibility 3.0 miles
Clouds Mostly Cloudy 1700 ft
Overcast 2500 ft
Dew Point 50 °F
Humidity 100%
Rainfall 0.11 in
Snow Depth Not available.
UV 0.0 out of 12
Pollen .30 out of 12
Air Quality Not available.
Flu Activity Not available.
METAR KAWO 311535Z AUTO 29007KT 3SM BKN017 OVC025 10/08 A2972 RMK AO1 P0001

More Conditions Fewer Conditions

Pressure 29.72 in
Visibility 3.0 miles
Clouds Mostly Cloudy 1700 ft
Overcast 2500 ft
Dew Point 50 °F
Humidity 100%
Rainfall 0.11 in
Snow Depth Not available.
UV 0.0 out of 12
Pollen .30 out of 12
Air Quality Not available.
Flu Activity Not available.
METAR KAWO 311535Z AUTO 29007KT 3SM BKN017 OVC025 10/08 A2972 RMK AO1 P0001

More Conditions Fewer Conditions

10-Day Weather Forecast

Almanac

Astronomy

Oct. 31, 2014 Rise Set
Actual Time
Civil Twilight
Nautical Twilight
Astronomical Twilight
Moon
Length of Visible Light
Length of Day
Tomorrow will be .
, % of the Moon is Illuminated

Today's Extremes

State Highs State Lows

Community

WunderPhotos

Upload Photos

1,766,644 photos uploaded!

WunderBlogs® & News

Nearby

Air Quality

  Air Quality AQ Index Pollutant
Not available.

Snow Depth

Station Depth Elevation

Earthquake Activity

City Distance Mag. Time & Date
Minimum magnitude displayed is 2.5.

Coastal Water Temperatures

Place Temperature

Nearby Weather Stations